Time;durP1;ratioP1;P1;durP2;ratioP2;P2;SDS_P1;SDS_P2;PMS_P1;PMS_P2;Temp;Humidity;BMP_temperature;BMP_pressure;BME280_temperature;BME280_humidity;BME280_pressure;Samples;Min_cycle;Max_cycle;Signal;HPM_P1;HPM_P2
2022/01/23 00:01:43;;;;;;;2.67;2.03;;;20.90;53.70;;;;;;5056132;28;20049;-72
2022/01/23 00:04:09;;;;;;;5.05;2.38;;;20.90;53.90;;;;;;5056222;28;20042;-73
2022/01/23 00:06:35;;;;;;;4.50;2.35;;;20.90;53.60;;;;;;5055916;28;20038;-72
2022/01/23 00:09:01;;;;;;;4.00;2.58;;;20.80;53.60;;;;;;5055874;28;20080;-74
2022/01/23 00:11:29;;;;;;;3.40;2.63;;;20.80;53.60;;;;;;5055979;28;20072;-72
2022/01/23 00:19:11;;;;;;;5.53;2.83;;;20.70;53.70;;;;;;5055742;28;20046;-72
2022/01/23 00:21:39;;;;;;;2.92;2.40;;;20.60;53.70;;;;;;5055880;28;20045;-72
2022/01/23 00:32:05;;;;;;;4.40;2.47;;;20.50;54.40;;;;;;5055833;28;20385;-72
2022/01/23 00:34:31;;;;;;;3.50;2.38;;;20.50;54.10;;;;;;5055638;28;20067;-72
2022/01/23 00:36:58;;;;;;;3.42;2.15;;;20.50;53.90;;;;;;5058567;28;20045;-72
2022/01/23 00:39:23;;;;;;;2.97;2.35;;;20.60;53.90;;;;;;5058827;28;20033;-73
2022/01/23 00:41:50;;;;;;;6.07;2.78;;;20.60;53.70;;;;;;5058495;28;20060;-72
2022/01/23 00:44:16;;;;;;;3.38;2.55;;;20.60;53.70;;;;;;5048241;28;20030;-72
2022/01/23 00:46:49;;;;;;;4.70;2.60;;;20.60;53.60;;;;;;5058668;28;20044;-72
2022/01/23 00:49:24;;;;;;;;;;;20.70;53.50;;;;;;5058940;28;20041;-73
2022/01/23 00:51:52;;;;;;;4.20;2.90;;;20.70;53.20;;;;;;5042109;28;19912;-73
2022/01/23 00:54:18;;;;;;;5.65;2.78;;;20.60;53.20;;;;;;5058989;28;20045;-72
2022/01/23 00:56:46;;;;;;;2.65;2.13;;;20.60;53.20;;;;;;5058821;28;20044;-72
2022/01/23 00:59:12;;;;;;;4.40;3.08;;;20.50;53.30;;;;;;5059196;28;20037;-72
2022/01/23 01:01:38;;;;;;;3.10;2.53;;;20.50;53.40;;;;;;5058805;28;20139;-73
2022/01/23 01:04:04;;;;;;;3.03;2.22;;;20.50;53.50;;;;;;5059038;28;20058;-73
2022/01/23 01:06:30;;;;;;;3.38;2.40;;;20.40;53.60;;;;;;5058729;28;20036;-72
2022/01/23 01:09:02;;;;;;;3.47;2.38;;;20.50;53.40;;;;;;5057960;28;20133;-72
2022/01/23 01:30:36;;;;;;;3.72;2.20;;;20.50;53.30;;;;;;5044057;28;20045;-73
2022/01/23 01:36:02;;;;;;;4.40;2.95;;;20.60;52.60;;;;;;5056882;28;20052;-72
2022/01/23 01:38:24;;;;;;;4.03;2.95;;;20.70;52.80;;;;;;5057943;28;20057;-72
2022/01/23 01:40:52;;;;;;;5.25;2.90;;;20.70;52.90;;;;;;5057475;28;20088;-72
2022/01/23 01:43:18;;;;;;;2.80;2.10;;;20.60;52.80;;;;;;5057499;28;20071;-72
2022/01/23 01:45:44;;;;;;;4.70;3.20;;;20.50;53.20;;;;;;5058095;28;20029;-72
2022/01/23 01:48:22;;;;;;;4.90;3.10;;;20.60;52.80;;;;;;5057030;28;20026;-72
2022/01/23 01:50:53;;;;;;;4.53;2.67;;;20.40;52.80;;;;;;5057338;28;20041;-72
2022/01/23 01:53:20;;;;;;;5.43;2.70;;;20.40;53.30;;;;;;5057352;28;20045;-72
2022/01/23 01:55:52;;;;;;;8.60;3.55;;;20.30;53.60;;;;;;5052590;28;20038;-72
2022/01/23 01:58:58;;;;;;;7.43;3.75;;;20.40;53.30;;;;;;5057771;28;20096;-72
2022/01/23 02:51:51;;;;;;;6.47;3.63;;;20.10;54.50;;;;;;5056393;28;20038;-72
2022/01/23 02:54:28;;;;;;;7.18;3.72;;;20.00;54.30;;;;;;5056828;28;20061;-72
2022/01/23 02:57:00;;;;;;;6.35;4.20;;;20.10;54.20;;;;;;5055501;28;20029;-72
2022/01/23 02:59:30;;;;;;;6.00;3.70;;;20.20;54.00;;;;;;5039472;28;20109;-73
2022/01/23 03:02:26;;;;;;;6.05;3.85;;;20.30;53.70;;;;;;5039307;28;20162;-72
2022/01/23 03:05:22;;;;;;;4.47;3.20;;;20.30;53.60;;;;;;5056309;28;20048;-72
2022/01/23 03:10:28;;;;;;;10.30;4.33;;;20.40;53.10;;;;;;5036188;28;20046;-73
2022/01/23 03:26:50;;;;;;;6.32;4.53;;;20.20;54.00;;;;;;5056520;28;20033;-72
2022/01/23 03:29:21;;;;;;;7.38;4.28;;;20.20;54.10;;;;;;5055723;28;20700;-73
2022/01/23 03:34:25;;;;;;;9.10;3.60;;;20.10;54.00;;;;;;5039463;28;20040;-72
2022/01/23 03:36:53;;;;;;;7.45;4.95;;;20.20;53.10;;;;;;5055581;28;20519;-72
2022/01/23 03:39:19;;;;;;;8.13;4.47;;;20.20;54.00;;;;;;5056397;28;20097;-73
2022/01/23 03:41:45;;;;;;;6.63;4.57;;;20.20;53.50;;;;;;5056277;28;20049;-72
2022/01/23 03:44:15;;;;;;;8.50;4.20;;;20.30;53.60;;;;;;5056030;28;20038;-72
2022/01/23 03:49:31;;;;;;;6.45;4.30;;;20.40;53.60;;;;;;5039003;28;20060;-72
2022/01/23 03:52:12;;;;;;;6.20;3.97;;;20.30;53.60;;;;;;5039227;28;20042;-72
2022/01/23 03:54:42;;;;;;;5.57;3.88;;;20.40;53.50;;;;;;5039205;28;20049;-72
2022/01/23 03:57:09;;;;;;;5.68;3.50;;;20.40;53.20;;;;;;5038684;28;20067;-73
2022/01/23 03:59:36;;;;;;;5.93;3.95;;;20.60;53.10;;;;;;5055627;28;20125;-72
2022/01/23 04:02:05;;;;;;;6.70;4.10;;;20.50;52.40;;;;;;5038184;28;20044;-73
2022/01/23 04:04:40;;;;;;;6.43;4.57;;;20.40;53.00;;;;;;5055986;28;20042;-72
2022/01/23 04:07:29;;;;;;;8.93;4.35;;;20.40;53.40;;;;;;5055285;28;20109;-72
2022/01/23 04:09:56;;;;;;;7.95;3.95;;;20.30;53.60;;;;;;5038241;28;20069;-72
2022/01/23 04:14:56;;;;;;;7.15;4.25;;;20.30;54.00;;;;;;5059604;28;20042;-71
2022/01/23 04:20:05;;;;;;;5.35;3.70;;;20.30;55.00;;;;;;5056798;28;20100;-72
2022/01/23 05:01:03;;;;;;;5.63;3.70;;;20.00;55.40;;;;;;5066854;28;20044;-72
2022/01/23 05:06:36;;;;;;;4.93;3.65;;;20.00;55.10;;;;;;5049831;28;20068;-72
2022/01/23 05:09:14;;;;;;;7.38;3.92;;;20.00;55.30;;;;;;5071948;28;20054;-73
2022/01/23 05:12:02;;;;;;;7.65;4.20;;;20.00;55.10;;;;;;5058221;28;20041;-72
2022/01/23 05:14:37;;;;;;;6.05;3.25;;;19.90;55.00;;;;;;5058044;28;20080;-72
2022/01/23 05:17:05;;;;;;;4.97;3.33;;;20.00;55.00;;;;;;5041106;28;20037;-72
2022/01/23 05:19:32;;;;;;;7.20;3.72;;;20.10;54.50;;;;;;5056982;28;20065;-72
2022/01/23 05:24:54;;;;;;;4.50;3.47;;;20.10;54.20;;;;;;5053645;28;20026;-72
2022/01/23 05:27:23;;;;;;;6.15;3.72;;;20.10;54.20;;;;;;5044331;28;20049;-72
2022/01/23 05:29:50;;;;;;;6.05;4.35;;;20.10;54.30;;;;;;5020861;28;20037;-72
2022/01/23 05:32:17;;;;;;;5.25;3.40;;;20.20;52.20;;;;;;5037993;28;20052;-72
2022/01/23 05:34:44;;;;;;;5.13;3.53;;;20.00;54.90;;;;;;5037783;28;20049;-72
2022/01/23 05:37:20;;;;;;;6.75;4.00;;;20.00;55.00;;;;;;5037224;28;20038;-73
2022/01/23 05:39:48;;;;;;;7.65;3.70;;;20.10;54.90;;;;;;5037167;28;20061;-72
2022/01/23 05:42:14;;;;;;;5.80;3.38;;;20.10;55.20;;;;;;5038137;28;20038;-72
2022/01/23 05:44:42;;;;;;;8.43;4.18;;;20.00;55.60;;;;;;5058784;28;20136;-72
2022/01/23 05:47:12;;;;;;;5.85;4.05;;;20.10;55.60;;;;;;5040325;28;20048;-73
2022/01/23 05:49:57;;;;;;;6.75;4.00;;;20.00;55.80;;;;;;5056573;28;20041;-72
2022/01/23 05:52:34;;;;;;;8.48;4.18;;;20.00;55.10;;;;;;5040049;28;20045;-72
2022/01/23 05:55:21;;;;;;;5.53;4.28;;;20.00;55.20;;;;;;5017156;28;20049;-72
2022/01/23 05:58:06;;;;;;;8.40;4.50;;;19.90;55.00;;;;;;5056620;28;20050;-72
2022/01/23 06:00:40;;;;;;;7.20;3.55;;;20.00;55.00;;;;;;5053227;28;20042;-72
2022/01/23 06:03:11;;;;;;;8.38;4.22;;;20.00;54.80;;;;;;5036046;28;20077;-74
2022/01/23 06:05:46;;;;;;;6.55;4.82;;;20.10;54.70;;;;;;5036347;28;20034;-72
2022/01/23 06:08:23;;;;;;;9.90;4.53;;;20.00;54.30;;;;;;5054587;28;20045;-72
2022/01/23 06:10:56;;;;;;;10.25;4.70;;;20.10;53.00;;;;;;5050815;28;20039;-72
2022/01/23 06:13:32;;;;;;;5.47;4.20;;;20.20;53.90;;;;;;5050699;28;20065;-72
2022/01/23 06:15:59;;;;;;;9.60;4.97;;;20.00;54.20;;;;;;5045112;28;20045;-72
2022/01/23 06:18:26;;;;;;;7.20;4.57;;;19.90;54.20;;;;;;5052322;28;20052;-73
2022/01/23 06:21:16;;;;;;;6.05;4.90;;;20.00;54.80;;;;;;5049169;28;20077;-72
2022/01/23 06:24:01;;;;;;;7.80;4.13;;;19.90;55.10;;;;;;5042565;28;20033;-72
2022/01/23 06:26:50;;;;;;;7.35;4.75;;;19.70;56.00;;;;;;5052906;28;20045;-72
2022/01/23 06:29:18;;;;;;;6.72;3.95;;;19.70;57.30;;;;;;5040378;28;20101;-71
2022/01/23 06:31:48;;;;;;;5.55;4.18;;;19.80;57.20;;;;;;5047609;28;20111;-72
2022/01/23 06:34:17;;;;;;;9.15;5.22;;;19.70;57.30;;;;;;5050925;28;20052;-71
2022/01/23 06:36:45;;;;;;;6.15;3.17;;;19.70;44.70;;;;;;5044755;28;20061;-71
2022/01/23 06:39:13;;;;;;;7.75;2.40;;;20.00;42.80;;;;;;5044603;28;20111;-72
2022/01/23 06:41:41;;;;;;;5.82;3.72;;;20.20;40.80;;;;;;5043407;28;20041;-72
2022/01/23 06:44:33;;;;;;;6.85;3.78;;;20.30;39.00;;;;;;5029258;28;21110;-72
2022/01/23 06:47:00;;;;;;;5.63;3.13;;;20.40;39.10;;;;;;5051415;28;20041;-72
2022/01/23 06:49:26;;;;;;;7.43;5.32;;;20.50;39.10;;;;;;5043100;28;20033;-71
2022/01/23 06:51:53;;;;;;;6.93;5.18;;;20.60;52.80;;;;;;5042397;28;20048;-71
2022/01/23 06:54:20;;;;;;;8.13;5.05;;;20.50;53.50;;;;;;5050582;28;20046;-71
2022/01/23 06:56:46;;;;;;;6.57;4.72;;;20.40;55.00;;;;;;5026598;28;20109;-73
2022/01/23 06:59:13;;;;;;;8.57;5.63;;;20.30;55.90;;;;;;5054825;28;20076;-72
2022/01/23 07:01:44;;;;;;;8.38;5.13;;;20.30;57.80;;;;;;5031765;28;20041;-73
2022/01/23 07:04:30;;;;;;;9.05;5.20;;;20.30;58.20;;;;;;5048028;28;20101;-72
2022/01/23 07:07:17;;;;;;;10.13;5.30;;;20.30;58.80;;;;;;5042502;28;20065;-74
2022/01/23 07:09:46;;;;;;;5.47;4.10;;;20.20;59.00;;;;;;5036107;28;20042;-74
2022/01/23 07:12:25;;;;;;;6.60;4.70;;;20.20;61.60;;;;;;5044385;28;20056;-74
2022/01/23 07:15:11;;;;;;;6.25;4.75;;;20.40;65.10;;;;;;5049425;28;20104;-76
2022/01/23 07:17:57;;;;;;;6.85;5.00;;;20.20;64.80;;;;;;4996397;28;20017;-76
2022/01/23 07:20:29;;;;;;;9.85;4.32;;;20.20;63.40;;;;;;5038391;28;20042;-72
2022/01/23 07:23:02;;;;;;;8.23;4.72;;;20.30;65.10;;;;;;5055224;28;20048;-76
2022/01/23 07:25:29;;;;;;;9.35;5.72;;;20.20;63.60;;;;;;5055049;28;20116;-77
2022/01/23 07:27:58;;;;;;;8.38;4.93;;;20.10;62.40;;;;;;5051929;28;20037;-74
2022/01/23 07:30:39;;;;;;;7.00;4.55;;;20.10;61.30;;;;;;5040141;28;20080;-75
2022/01/23 07:33:05;;;;;;;7.25;4.80;;;20.20;62.60;;;;;;5053801;28;20041;-72
2022/01/23 07:35:32;;;;;;;7.28;4.07;;;20.30;62.80;;;;;;5052910;28;20056;-74
2022/01/23 07:37:59;;;;;;;7.68;3.97;;;20.20;62.20;;;;;;5033423;28;20045;-74
2022/01/23 07:40:43;;;;;;;10.18;4.60;;;20.20;62.50;;;;;;5035195;28;20045;-74
2022/01/23 07:43:16;;;;;;;11.95;5.30;;;20.10;58.30;;;;;;5050247;28;20052;-75
2022/01/23 07:46:01;;;;;;;6.53;3.95;;;20.20;61.50;;;;;;5049679;28;20055;-75
2022/01/23 07:48:46;;;;;;;14.15;6.35;;;20.30;62.70;;;;;;5058384;28;20053;-73
2022/01/23 07:51:30;;;;;;;6.65;4.10;;;20.30;61.70;;;;;;5036265;28;20041;-73
2022/01/23 07:54:16;;;;;;;6.70;4.40;;;20.40;60.90;;;;;;5055147;28;20064;-74
2022/01/23 07:56:52;;;;;;;7.70;4.13;;;20.50;61.30;;;;;;5056573;28;20067;-75
2022/01/23 07:59:36;;;;;;;4.72;3.33;;;20.50;61.10;;;;;;5056513;28;20041;-75
2022/01/23 08:02:22;;;;;;;7.72;4.45;;;20.50;60.50;;;;;;5050757;28;20056;-74
2022/01/23 08:05:09;;;;;;;8.20;4.32;;;20.60;60.30;;;;;;5048536;28;20055;-74
2022/01/23 08:07:37;;;;;;;5.53;3.03;;;20.70;59.90;;;;;;5042653;28;20044;-74
2022/01/23 08:10:22;;;;;;;4.53;2.67;;;20.80;57.80;;;;;;5033267;28;20060;-74
2022/01/23 08:12:48;;;;;;;3.33;2.47;;;20.90;45.10;;;;;;5053698;28;20045;-74
2022/01/23 08:15:15;;;;;;;7.68;4.50;;;21.00;46.00;;;;;;5039785;28;20048;-75
2022/01/23 08:17:42;;;;;;;8.68;3.97;;;21.10;41.00;;;;;;5054085;28;20052;-73
2022/01/23 08:20:08;;;;;;;7.80;3.05;;;21.20;40.00;;;;;;5052838;28;20060;-78
2022/01/23 08:22:34;;;;;;;5.65;2.53;;;21.30;39.40;;;;;;5051661;28;20107;-74
2022/01/23 08:25:03;;;;;;;3.95;2.83;;;21.40;38.70;;;;;;5054244;28;20033;-72
2022/01/23 08:27:30;;;;;;;6.03;3.60;;;21.60;39.70;;;;;;5058908;28;20041;-72
2022/01/23 08:29:57;;;;;;;4.30;3.13;;;21.50;36.90;;;;;;5041026;28;20049;-72
2022/01/23 08:32:23;;;;;;;6.15;2.80;;;21.60;36.60;;;;;;5056180;28;20065;-73
2022/01/23 08:34:49;;;;;;;5.10;3.08;;;21.70;36.90;;;;;;5058490;28;20034;-74
2022/01/23 08:37:15;;;;;;;4.45;2.55;;;21.70;38.00;;;;;;5049820;28;20053;-74
2022/01/23 08:39:42;;;;;;;4.45;3.10;;;21.80;37.30;;;;;;5047735;28;20056;-74
2022/01/23 08:42:15;;;;;;;8.57;4.30;;;21.80;36.90;;;;;;5048101;28;20053;-75
2022/01/23 08:44:43;;;;;;;11.63;3.83;;;21.80;35.50;;;;;;5048623;28;20044;-74
2022/01/23 08:47:10;;;;;;;6.13;4.35;;;21.90;35.00;;;;;;5057486;28;20068;-73
2022/01/23 08:49:44;;;;;;;7.50;2.83;;;21.80;35.50;;;;;;5053743;28;20076;-74
2022/01/23 08:52:10;;;;;;;8.70;4.20;;;21.90;35.10;;;;;;5056747;28;20041;-74
2022/01/23 08:54:36;;;;;;;5.85;3.20;;;22.00;35.00;;;;;;5055412;28;20045;-76
2022/01/23 08:57:04;;;;;;;5.93;4.20;;;21.90;33.60;;;;;;5048000;28;20041;-75
2022/01/23 08:59:30;;;;;;;8.18;4.45;;;21.90;33.70;;;;;;5047319;28;20045;-75
2022/01/23 09:01:56;;;;;;;7.63;4.65;;;22.00;34.10;;;;;;5052656;28;20034;-75
2022/01/23 09:04:22;;;;;;;8.77;3.85;;;22.10;33.80;;;;;;5058474;28;20044;-75
2022/01/23 09:06:48;;;;;;;7.50;4.10;;;22.10;35.70;;;;;;5057220;28;20100;-76
2022/01/23 09:09:18;;;;;;;7.55;4.60;;;22.10;35.20;;;;;;5050317;28;20076;-74
2022/01/23 09:12:00;;;;;;;6.55;4.47;;;22.10;33.70;;;;;;5053801;28;20080;-74
2022/01/23 09:14:26;;;;;;;8.60;4.78;;;22.00;35.00;;;;;;5055171;28;20041;-75
2022/01/23 09:16:54;;;;;;;8.13;4.00;;;22.10;31.90;;;;;;5058023;28;20649;-75
2022/01/23 09:19:22;;;;;;;8.02;4.68;;;22.00;35.00;;;;;;5056608;28;20083;-75
2022/01/23 09:21:50;;;;;;;9.23;4.65;;;22.00;33.90;;;;;;5048830;28;20732;-75
2022/01/23 09:24:18;;;;;;;6.60;3.75;;;21.90;33.80;;;;;;5045518;28;20048;-74
2022/01/23 09:26:51;;;;;;;7.03;4.88;;;21.90;46.00;;;;;;5056048;28;20116;-75
2022/01/23 09:29:33;;;;;;;8.25;4.78;;;22.00;46.90;;;;;;5054753;28;20053;-75
2022/01/23 09:32:00;;;;;;;6.82;4.43;;;21.70;47.20;;;;;;5046047;28;20044;-74
2022/01/23 09:34:31;;;;;;;7.30;4.97;;;21.70;48.30;;;;;;5034108;28;20064;-74
2022/01/23 09:37:00;;;;;;;8.30;4.45;;;21.50;50.00;;;;;;5056840;28;20042;-77
2022/01/23 09:39:26;;;;;;;6.78;4.50;;;21.40;51.00;;;;;;5047219;28;20083;-76
2022/01/23 09:42:04;;;;;;;5.28;4.35;;;21.50;51.60;;;;;;5055160;28;20068;-75
2022/01/23 09:44:36;;;;;;;5.20;4.40;;;21.30;52.30;;;;;;5036935;28;20033;-75
2022/01/23 09:47:03;;;;;;;4.50;3.40;;;21.30;50.30;;;;;;5035349;28;20038;-76
2022/01/23 09:49:30;;;;;;;5.70;3.70;;;21.20;51.80;;;;;;5037107;28;20041;-75
2022/01/23 09:52:00;;;;;;;6.90;4.18;;;21.20;52.60;;;;;;5037097;28;20044;-75
2022/01/23 09:54:30;;;;;;;7.45;4.25;;;21.20;53.10;;;;;;5045700;28;20037;-75
2022/01/23 09:57:05;;;;;;;6.03;4.30;;;21.30;52.90;;;;;;5054514;28;20048;-75
2022/01/23 09:59:31;;;;;;;6.93;3.17;;;21.10;53.40;;;;;;5047972;28;20101;-75
2022/01/23 10:01:58;;;;;;;6.88;3.28;;;21.20;53.80;;;;;;5039062;28;20046;-75
2022/01/23 10:04:25;;;;;;;3.28;1.20;;;21.50;53.70;;;;;;5029909;28;20117;-75
2022/01/23 10:06:53;;;;;;;5.28;4.07;;;21.50;52.70;;;;;;5040285;28;20041;-75
2022/01/23 10:09:25;;;;;;;7.00;4.50;;;21.70;51.80;;;;;;5053440;28;20049;-75
2022/01/23 10:11:51;;;;;;;5.10;2.30;;;21.90;51.00;;;;;;5052663;28;20045;-74
2022/01/23 10:14:19;;;;;;;7.18;3.70;;;21.80;50.20;;;;;;5046228;28;20060;-78
2022/01/23 10:16:47;;;;;;;4.60;1.80;;;22.10;49.30;;;;;;5055845;28;20077;-75
2022/01/23 10:19:15;;;;;;;4.30;3.15;;;22.00;49.80;;;;;;5047824;28;20101;-73
2022/01/23 10:21:43;;;;;;;5.00;2.45;;;22.20;48.60;;;;;;5044109;28;20053;-73
2022/01/23 10:24:11;;;;;;;6.72;3.03;;;22.30;39.20;;;;;;5044012;28;20049;-75
2022/01/23 10:26:45;;;;;;;6.82;3.88;;;22.20;38.90;;;;;;5025932;28;20046;-74
2022/01/23 10:29:34;;;;;;;13.70;3.22;;;22.50;42.60;;;;;;5050801;28;20027;-75
2022/01/23 10:32:10;;;;;;;4.57;2.42;;;22.90;40.90;;;;;;5048586;28;20060;-72
2022/01/23 10:34:46;;;;;;;14.10;6.28;;;22.90;40.20;;;;;;5048277;28;20057;-74
2022/01/23 10:37:23;;;;;;;12.57;7.75;;;22.90;37.00;;;;;;5045599;28;20086;-75
2022/01/23 10:39:50;;;;;;;10.93;6.88;;;22.70;38.10;;;;;;5047422;28;20060;-73
2022/01/23 10:42:49;;;;;;;13.07;9.20;;;22.80;38.80;;;;;;5035699;28;20684;-73
2022/01/23 10:51:11;;;;;;;9.32;6.78;;;22.60;35.00;;;;;;5045491;28;20045;-73
2022/01/23 10:54:04;;;;;;;14.32;9.93;;;22.60;35.30;;;;;;5049202;28;20067;-72
2022/01/23 10:56:59;;;;;;;7.50;4.82;;;22.60;34.30;;;;;;5044930;28;20097;-72
2022/01/23 10:59:26;;;;;;;7.90;4.35;;;22.50;36.00;;;;;;5045024;28;20123;-71
2022/01/23 11:01:58;;;;;;;6.10;4.88;;;22.50;34.20;;;;;;5047071;28;20041;-73
2022/01/23 11:04:24;;;;;;;9.30;3.97;;;22.50;36.70;;;;;;5051841;28;20037;-72
2022/01/23 11:06:57;;;;;;;6.20;3.72;;;22.40;34.70;;;;;;5045475;28;20030;-70
2022/01/23 11:09:36;;;;;;;8.47;3.63;;;22.30;35.50;;;;;;5045448;28;20085;-73
2022/01/23 11:12:14;;;;;;;6.95;3.45;;;22.30;34.10;;;;;;5048786;28;20278;-71
2022/01/23 11:17:27;;;;;;;5.47;3.17;;;22.10;34.90;;;;;;5046656;28;20041;-71
2022/01/23 11:20:00;;;;;;;6.20;3.38;;;22.10;34.70;;;;;;5045847;28;20053;-73
2022/01/23 11:22:32;;;;;;;7.22;4.07;;;21.90;33.50;;;;;;5048819;28;20048;-72
2022/01/23 11:25:07;;;;;;;7.43;4.25;;;21.90;33.20;;;;;;5046698;28;20109;-73
2022/01/23 11:27:39;;;;;;;5.30;3.88;;;21.90;33.00;;;;;;5044468;28;20034;-74
2022/01/23 11:30:06;;;;;;;7.47;4.35;;;22.00;32.80;;;;;;5044718;28;20042;-74
2022/01/23 11:32:41;;;;;;;5.35;4.07;;;21.80;33.50;;;;;;5053469;28;20049;-76
2022/01/23 11:35:11;;;;;;;9.52;4.82;;;21.80;46.70;;;;;;5048287;28;20045;-74
2022/01/23 11:37:46;;;;;;;8.55;4.75;;;22.00;48.10;;;;;;5036117;28;20041;-74
2022/01/23 11:53:59;;;;;;;12.75;6.93;;;21.40;53.00;;;;;;5046227;28;20117;-74
2022/01/23 11:56:29;;;;;;;11.90;7.78;;;21.30;53.70;;;;;;5054965;28;20045;-73
2022/01/23 11:59:21;;;;;;;5.90;4.55;;;21.20;54.10;;;;;;5037271;28;20097;-74
2022/01/23 12:02:12;;;;;;;7.55;4.72;;;21.10;54.30;;;;;;5052963;28;20124;-73
2022/01/23 12:04:40;;;;;;;8.07;4.80;;;21.10;54.80;;;;;;5046330;28;20044;-76
2022/01/23 12:07:11;;;;;;;8.13;5.50;;;21.10;54.90;;;;;;5054523;28;20040;-75
2022/01/23 12:09:45;;;;;;;7.80;4.75;;;21.10;55.10;;;;;;5054331;28;20057;-75
2022/01/23 12:18:30;;;;;;;7.60;4.45;;;21.00;55.60;;;;;;5053022;28;20073;-75
2022/01/23 12:20:56;;;;;;;5.38;3.80;;;21.00;56.00;;;;;;5055062;28;20041;-74
2022/01/23 12:23:23;;;;;;;8.38;4.68;;;21.00;56.10;;;;;;5054417;28;20133;-74
2022/01/23 12:25:52;;;;;;;6.05;4.38;;;20.90;56.20;;;;;;5035042;28;20030;-76
2022/01/23 12:28:28;;;;;;;5.63;4.00;;;20.90;56.50;;;;;;5037243;28;20038;-74
2022/01/23 12:31:00;;;;;;;6.72;5.13;;;20.90;56.70;;;;;;5049587;28;20076;-73
2022/01/23 12:33:30;;;;;;;6.05;3.92;;;20.90;58.10;;;;;;5054165;28;20041;-74
2022/01/23 12:35:59;;;;;;;8.35;4.03;;;20.90;60.60;;;;;;5046868;28;20044;-73
2022/01/23 12:38:36;;;;;;;4.88;3.75;;;21.00;62.30;;;;;;5056138;28;20512;-74
2022/01/23 12:41:23;;;;;;;6.90;4.93;;;21.00;60.90;;;;;;5051730;28;20042;-72
2022/01/23 12:43:56;;;;;;;3.92;3.50;;;20.90;59.00;;;;;;5051915;28;20053;-75
2022/01/23 12:46:31;;;;;;;6.15;4.00;;;20.80;58.00;;;;;;5041606;28;20033;-74
2022/01/23 12:49:14;;;;;;;6.20;4.55;;;20.70;58.40;;;;;;5052162;28;20100;-75
2022/01/23 12:51:42;;;;;;;5.68;3.72;;;20.70;58.10;;;;;;5058254;28;20041;-74
2022/01/23 12:54:14;;;;;;;5.38;4.07;;;20.80;58.00;;;;;;5044705;28;20057;-74
2022/01/23 12:56:44;;;;;;;4.47;3.40;;;20.80;57.70;;;;;;5038573;28;20065;-75
2022/01/23 12:59:14;;;;;;;5.78;4.45;;;20.90;57.60;;;;;;5040797;28;20041;-74
2022/01/23 13:01:45;;;;;;;5.22;3.72;;;20.90;57.50;;;;;;5047995;28;20033;-75
2022/01/23 13:04:12;;;;;;;4.70;2.42;;;20.80;57.50;;;;;;5054655;28;20037;-74
2022/01/23 13:06:55;;;;;;;7.07;4.53;;;20.80;57.20;;;;;;5058224;28;20041;-75
2022/01/23 13:09:32;;;;;;;6.03;4.13;;;20.90;57.20;;;;;;5057957;28;20079;-74
2022/01/23 13:12:10;;;;;;;7.10;4.65;;;20.70;56.20;;;;;;5057822;28;20109;-74
2022/01/23 13:14:43;;;;;;;5.72;4.30;;;20.80;57.70;;;;;;5037616;28;20045;-74
2022/01/23 13:30:56;;;;;;;7.68;4.65;;;21.00;57.20;;;;;;5050947;28;20037;-75
2022/01/23 13:33:25;;;;;;;12.88;5.65;;;21.00;57.00;;;;;;5047771;28;20056;-75
2022/01/23 13:35:53;;;;;;;8.07;5.53;;;21.00;57.40;;;;;;5049248;28;20029;-75
2022/01/23 13:38:22;;;;;;;8.13;5.93;;;21.00;57.10;;;;;;5037841;28;20064;-74
2022/01/23 13:40:59;;;;;;;10.80;5.93;;;21.00;57.30;;;;;;5037293;28;20030;-73
2022/01/23 14:02:54;;;;;;;6.18;4.00;;;20.70;59.30;;;;;;5055651;28;20052;-74
2022/01/23 14:05:29;;;;;;;6.05;4.75;;;20.90;60.60;;;;;;5050730;28;20033;-74
2022/01/23 14:07:59;;;;;;;8.32;5.50;;;20.90;59.70;;;;;;5041012;28;20048;-74
2022/01/23 14:10:30;;;;;;;6.95;5.25;;;20.90;57.80;;;;;;5053638;28;20051;-74
2022/01/23 14:13:10;;;;;;;8.00;4.85;;;20.90;59.10;;;;;;5053467;28;20064;-76
2022/01/23 14:15:44;;;;;;;7.95;5.20;;;20.90;59.00;;;;;;5054473;28;20056;-76
2022/01/23 14:18:13;;;;;;;10.45;6.22;;;21.20;64.10;;;;;;5048998;28;20041;-77
2022/01/23 14:20:43;;;;;;;9.00;6.05;;;21.60;59.50;;;;;;5033193;28;20037;-75
2022/01/23 14:23:20;;;;;;;11.43;5.07;;;21.70;59.40;;;;;;5036777;28;20049;-74
2022/01/23 14:25:57;;;;;;;9.48;5.53;;;21.70;58.70;;;;;;5051238;28;20038;-75
2022/01/23 14:28:28;;;;;;;8.15;5.70;;;21.80;58.40;;;;;;5019770;28;20069;-75
2022/01/23 14:30:59;;;;;;;11.93;7.38;;;21.90;57.70;;;;;;5043764;28;20065;-75
2022/01/23 14:33:33;;;;;;;11.57;6.88;;;22.00;56.90;;;;;;5042305;28;20056;-75
2022/01/23 14:36:13;;;;;;;9.93;5.78;;;22.00;56.40;;;;;;5040153;28;20053;-75
2022/01/23 14:38:39;;;;;;;9.65;6.78;;;22.30;56.40;;;;;;5044854;28;20041;-73
2022/01/23 14:41:09;;;;;;;14.15;7.50;;;22.20;55.80;;;;;;5036388;28;20038;-71
2022/01/23 14:43:41;;;;;;;9.30;6.15;;;22.30;55.70;;;;;;5048496;28;20052;-75
2022/01/23 14:46:12;;;;;;;8.48;6.47;;;22.30;55.50;;;;;;5051541;28;21673;-74
2022/01/23 14:48:45;;;;;;;10.00;7.32;;;22.20;48.20;;;;;;5054808;28;20041;-72
2022/01/23 14:51:14;;;;;;;;;;;22.30;38.00;;;;;;5049918;28;20573;-74
2022/01/23 14:53:41;;;;;;;1.45;1.17;;;22.30;46.40;;;;;;5046047;28;19919;-74
2022/01/23 14:56:14;;;;;;;4.28;2.95;;;22.60;50.60;;;;;;5052242;28;20065;-73
2022/01/23 14:58:40;;;;;;;;;;;22.80;49.50;;;;;;5056594;28;20041;-74
2022/01/23 15:01:10;;;;;;;8.40;3.92;;;22.80;48.50;;;;;;5054907;28;19964;-75
2022/01/23 15:03:37;;;;;;;9.70;6.72;;;22.80;47.80;;;;;;5054204;28;20060;-75
2022/01/23 15:06:04;;;;;;;12.88;7.78;;;23.00;47.00;;;;;;5048802;28;20068;-74
2022/01/23 15:08:31;;;;;;;10.77;7.50;;;23.00;45.70;;;;;;5045558;28;20053;-75
2022/01/23 15:11:00;;;;;;;10.18;7.35;;;22.90;46.70;;;;;;5029565;28;20044;-76
2022/01/23 15:13:29;;;;;;;8.50;5.80;;;22.60;47.20;;;;;;5034514;28;20144;-76
2022/01/23 15:15:57;;;;;;;12.50;7.22;;;22.40;48.60;;;;;;5041992;28;20057;-73
2022/01/23 15:18:24;;;;;;;10.35;6.80;;;22.40;49.70;;;;;;5038734;28;20050;-75
2022/01/23 15:20:51;;;;;;;11.30;6.25;;;22.30;50.20;;;;;;5039091;28;20056;-74
2022/01/23 15:23:17;;;;;;;7.90;6.40;;;22.10;51.20;;;;;;5053812;28;20071;-72
2022/01/23 15:25:46;;;;;;;9.68;7.10;;;22.00;50.60;;;;;;5053773;28;20073;-74
2022/01/23 15:28:12;;;;;;;11.45;7.70;;;21.90;52.80;;;;;;5041204;28;20033;-78
2022/01/23 15:30:40;;;;;;;13.15;7.85;;;21.70;53.10;;;;;;5051838;28;20048;-72
2022/01/23 15:33:06;;;;;;;12.75;8.68;;;21.70;54.20;;;;;;5045894;28;20041;-74
2022/01/23 15:35:36;;;;;;;16.15;8.32;;;21.70;54.70;;;;;;5036723;28;20041;-76
2022/01/23 15:38:03;;;;;;;9.95;6.88;;;21.70;55.30;;;;;;5035344;28;20045;-71
2022/01/23 15:40:30;;;;;;;12.85;9.20;;;21.80;53.30;;;;;;5041819;28;20026;-73
2022/01/23 15:42:56;;;;;;;10.93;7.68;;;21.60;55.10;;;;;;5034344;28;20044;-76
2022/01/23 15:45:24;;;;;;;13.13;8.00;;;21.60;56.00;;;;;;5034360;28;20041;-75
2022/01/23 15:47:51;;;;;;;13.93;9.35;;;21.50;56.10;;;;;;5044197;28;20041;-73
2022/01/23 15:50:19;;;;;;;10.57;7.15;;;21.50;54.80;;;;;;5047862;28;20061;-74
2022/01/23 15:52:47;;;;;;;20.92;13.40;;;21.80;40.80;;;;;;5043280;28;20034;-72
2022/01/23 15:55:14;;;;;;;38.63;18.50;;;22.10;42.40;;;;;;5027710;28;20214;-73
2022/01/23 15:57:43;;;;;;;8.57;4.72;;;22.30;41.70;;;;;;5033192;28;20038;-74
2022/01/23 16:00:12;;;;;;;6.18;5.57;;;22.60;39.90;;;;;;5049724;28;20030;-74
2022/01/23 16:02:39;;;;;;;23.30;13.40;;;22.60;40.90;;;;;;5046507;28;20178;-71
2022/01/23 16:05:05;;;;;;;20.25;13.70;;;22.90;44.00;;;;;;5045421;28;20040;-76
2022/01/23 16:07:32;;;;;;;2.50;2.30;;;23.00;51.10;;;;;;5045634;28;20131;-73
2022/01/23 16:10:01;;;;;;;6.07;3.83;;;23.30;49.70;;;;;;5055321;28;20116;-75
2022/01/23 16:12:27;;;;;;;3.33;2.03;;;23.30;47.00;;;;;;5049804;28;20045;-75
2022/01/23 16:14:53;;;;;;;2.80;2.28;;;23.50;46.00;;;;;;5043536;28;20045;-75
2022/01/23 16:17:20;;;;;;;5.78;2.95;;;23.60;44.80;;;;;;5046627;28;20033;-74
2022/01/23 16:19:46;;;;;;;3.78;3.03;;;23.80;44.40;;;;;;5054331;28;20029;-74
2022/01/23 16:22:12;;;;;;;5.15;3.35;;;23.80;42.90;;;;;;5034423;28;20038;-75
2022/01/23 16:24:38;;;;;;;5.30;4.40;;;23.70;41.90;;;;;;5056311;28;20030;-74
2022/01/23 16:27:05;;;;;;;7.78;5.25;;;23.80;42.40;;;;;;5037385;28;20053;-74
2022/01/23 16:29:32;;;;;;;7.85;6.22;;;23.60;38.80;;;;;;5049133;28;20030;-77
2022/01/23 16:31:59;;;;;;;8.10;5.55;;;23.50;30.50;;;;;;5051760;28;20041;-75
2022/01/23 16:34:29;;;;;;;8.68;5.78;;;23.50;31.20;;;;;;5057018;28;20057;-75
2022/01/23 16:36:56;;;;;;;7.70;5.30;;;23.40;31.70;;;;;;5043210;28;20061;-73
2022/01/23 16:39:23;;;;;;;8.38;4.78;;;23.20;31.60;;;;;;5037082;28;20045;-74
2022/01/23 16:41:51;;;;;;;8.02;6.38;;;23.20;32.60;;;;;;5053603;28;20052;-75
2022/01/23 16:44:21;;;;;;;8.13;5.45;;;23.10;31.80;;;;;;5039531;28;20037;-74
2022/01/23 16:46:47;;;;;;;6.40;4.40;;;23.10;31.60;;;;;;5051926;28;20057;-75